Iberville, Canada
Current Conditions -  °F | °C
As of 2:00 AM on Wednesday 26 Nov 2014 (Local Time) from CYHU Reporting Station
Overcast Overcast  
Wind Chill: 27°   Ceiling: 3500
Heat Index: 37°   Visibility: 9mi
Dew Point: 23°   Wind: 18mph
Humidity: 56%   Direction: 260°W
Pressure: 30.16"   Gusts: 24mph
Location:  45.32°N, 73.23°W
Report Text: CYHU 260700Z AUTO 26016G21KT 9SM OVC035 03/M05 A3016 RMK SLP214
Loading
Personal Weather Stations






























Interactive Weather Map New forecast layout! Learn more

10-Day Weather Forecast

Advertisements
Track Severe Weather on mobile